createdAt,value
2019-04-20T00:00:01.156Z,45.70
2019-04-20T00:00:58.527Z,45.70
2019-04-20T00:01:58.243Z,46.31
2019-04-20T00:02:59.389Z,46.41
2019-04-20T00:03:55.696Z,46.72
2019-04-20T00:04:56.982Z,46.41
2019-04-20T00:05:55.664Z,46.31
2019-04-20T00:06:56.453Z,46.44
2019-04-20T00:07:57.043Z,46.44
2019-04-20T00:08:59.791Z,46.84
2019-04-20T00:10:03.504Z,46.64
2019-04-20T00:11:04.170Z,46.64
2019-04-20T00:12:05.241Z,46.53
2019-04-20T00:13:08.784Z,47.78
2019-04-20T00:14:04.105Z,47.66
2019-04-20T00:14:56.627Z,47.56
2019-04-20T00:15:55.817Z,47.56
2019-04-20T00:16:56.598Z,47.35
2019-04-20T00:17:58.975Z,47.56
2019-04-20T00:18:59.055Z,48.27
2019-04-20T00:19:57.855Z,48.27
2019-04-20T00:21:02.665Z,48.17
2019-04-20T00:22:03.028Z,48.38
2019-04-20T00:22:57.872Z,48.40
2019-04-20T00:23:56.527Z,48.58
2019-04-20T00:25:01.319Z,48.50
2019-04-20T00:26:06.802Z,48.09
2019-04-20T00:27:15.921Z,48.91
2019-04-20T00:28:16.309Z,48.40
2019-04-20T00:29:17.693Z,48.40
2019-04-20T00:30:23.897Z,48.40
2019-04-20T00:31:14.966Z,48.60
2019-04-20T00:32:06.357Z,48.42
2019-04-20T00:33:07.701Z,48.73
2019-04-20T00:34:06.609Z,48.93
2019-04-20T00:34:56.259Z,49.04
2019-04-20T00:35:55.244Z,49.16
2019-04-20T00:36:56.176Z,49.44
2019-04-20T00:37:55.221Z,49.47
2019-04-20T00:38:59.688Z,49.14
2019-04-20T00:39:57.789Z,49.24
2019-04-20T00:41:00.155Z,49.75
2019-04-20T00:42:03.548Z,49.75
2019-04-20T00:42:59.549Z,49.55
2019-04-20T00:43:57.780Z,49.65
2019-04-20T00:45:05.675Z,49.75
2019-04-20T00:46:01.148Z,49.44
2019-04-20T00:47:09.229Z,49.16
2019-04-20T00:48:05.549Z,50.16
2019-04-20T00:49:06.898Z,49.16
2019-04-20T00:50:07.995Z,50.06
2019-04-20T00:51:17.499Z,49.88
2019-04-20T00:52:26.490Z,49.77
2019-04-20T00:53:09.346Z,49.88
2019-04-20T00:53:58.800Z,49.98
2019-04-20T00:54:55.917Z,49.98
2019-04-20T00:55:55.051Z,50.59
2019-04-20T00:57:05.762Z,49.88
2019-04-20T00:58:05.392Z,50.49
2019-04-20T00:59:11.916Z,50.59
2019-04-20T01:00:17.592Z,50.49
2019-04-20T01:01:17.191Z,50.49
2019-04-20T01:02:12.671Z,50.59
2019-04-20T01:03:16.039Z,50.18
2019-04-20T01:04:15.080Z,50.49
2019-04-20T01:05:11.919Z,50.49
2019-04-20T01:06:19.285Z,51.10
2019-04-20T01:07:10.763Z,50.59
2019-04-20T01:08:00.163Z,50.29
2019-04-20T01:08:57.037Z,49.98
2019-04-20T01:09:56.203Z,50.29
2019-04-20T01:10:57.676Z,49.98
2019-04-20T01:11:54.866Z,50.70
2019-04-20T01:13:03.405Z,50.59
2019-04-20T01:14:02.239Z,50.62
2019-04-20T01:15:01.049Z,50.70
2019-04-20T01:16:03.291Z,51.21
2019-04-20T01:17:02.183Z,51.21
2019-04-20T01:17:55.801Z,51.31
2019-04-20T01:18:55.006Z,51.31
2019-04-20T01:19:54.859Z,51.03
2019-04-20T01:20:58.108Z,51.64
2019-04-20T01:22:03.611Z,51.03
2019-04-20T01:23:01.863Z,51.13
2019-04-20T01:23:59.977Z,51.54
2019-04-20T01:25:00.115Z,51.75
2019-04-20T01:26:01.827Z,51.75
2019-04-20T01:27:00.426Z,51.34
2019-04-20T01:28:17.696Z,51.85
2019-04-20T01:29:09.118Z,52.36
2019-04-20T01:30:08.009Z,52.15
2019-04-20T01:31:05.281Z,52.18
2019-04-20T01:32:08.975Z,51.85
2019-04-20T01:33:14.421Z,52.87
2019-04-20T01:34:05.649Z,52.26
2019-04-20T01:35:12.140Z,52.39
2019-04-20T01:36:16.540Z,52.26
2019-04-20T01:37:11.779Z,52.18
2019-04-20T01:38:11.336Z,52.59
2019-04-20T01:39:09.204Z,52.69
2019-04-20T01:39:59.300Z,52.87
2019-04-20T01:40:57.072Z,52.77
2019-04-20T01:41:54.541Z,53.18
2019-04-20T01:42:55.311Z,52.67
2019-04-20T01:43:54.525Z,52.90
2019-04-20T01:44:56.965Z,52.90
2019-04-20T01:46:01.383Z,53.00
2019-04-20T01:46:58.670Z,53.00
2019-04-20T01:47:59.179Z,53.00
2019-04-20T01:49:00.184Z,53.61
2019-04-20T01:50:03.849Z,52.59
2019-04-20T01:51:06.257Z,53.10
2019-04-20T01:52:03.925Z,52.82
2019-04-20T01:53:08.996Z,53.00
2019-04-20T01:54:14.820Z,53.85
2019-04-20T01:55:15.773Z,53.54
2019-04-20T01:56:15.470Z,54.15
2019-04-20T01:57:06.277Z,54.15
2019-04-20T01:58:13.628Z,53.85
2019-04-20T01:59:10.204Z,54.25
2019-04-20T02:00:03.655Z,54.05
2019-04-20T02:00:57.312Z,53.44
2019-04-20T02:01:59.246Z,54.05
2019-04-20T02:02:59.336Z,53.64
2019-04-20T02:03:57.196Z,54.05
2019-04-20T02:05:00.618Z,54.18
2019-04-20T02:06:02.414Z,54.28
2019-04-20T02:06:59.900Z,54.49
2019-04-20T02:07:57.022Z,54.28
2019-04-20T02:08:59.399Z,54.59
2019-04-20T02:09:59.904Z,55.00
2019-04-20T02:10:59.202Z,55.00
2019-04-20T02:12:00.175Z,54.90
2019-04-20T02:12:59.765Z,54.69
2019-04-20T02:14:01.442Z,55.10
2019-04-20T02:14:59.380Z,55.00
2019-04-20T02:15:59.318Z,54.90
2019-04-20T02:17:04.291Z,55.00
2019-04-20T02:18:07.734Z,54.79
2019-04-20T02:19:10.916Z,54.82
2019-04-20T02:20:18.626Z,55.00
2019-04-20T02:21:16.365Z,55.62
2019-04-20T02:22:07.584Z,55.41
2019-04-20T02:23:13.882Z,55.23
2019-04-20T02:24:00.602Z,55.43
2019-04-20T02:24:55.230Z,55.23
2019-04-20T02:25:54.253Z,55.33
2019-04-20T02:26:54.091Z,55.33
2019-04-20T02:28:13.552Z,55.74
2019-04-20T02:29:19.039Z,55.74
2019-04-20T02:30:25.334Z,55.95
2019-04-20T02:31:34.631Z,55.95
2019-04-20T02:32:22.827Z,56.18
2019-04-20T02:33:40.107Z,56.59
2019-04-20T02:34:37.799Z,56.56
2019-04-20T02:35:26.031Z,56.98
2019-04-20T02:36:40.686Z,56.38
2019-04-20T02:38:42.589Z,57.00
2019-04-20T02:40:47.672Z,56.28
2019-04-20T02:41:31.567Z,56.18
2019-04-20T02:42:34.186Z,56.46
2019-04-20T02:43:40.510Z,56.98
2019-04-20T02:44:33.923Z,56.59
2019-04-20T02:46:26.483Z,56.49
2019-04-20T02:47:30.629Z,56.41
2019-04-20T02:48:21.634Z,57.10
2019-04-20T02:49:47.460Z,57.41
2019-04-20T02:50:33.429Z,56.79
2019-04-20T02:51:33.148Z,57.75
2019-04-20T02:53:38.969Z,58.13
2019-04-20T02:55:33.976Z,57.93
2019-04-20T02:56:32.546Z,57.93
2019-04-20T02:57:32.715Z,58.23
2019-04-20T02:58:25.466Z,58.16
2019-04-20T03:00:17.873Z,58.26
2019-04-20T03:01:14.921Z,58.16
2019-04-20T03:02:10.305Z,58.06
2019-04-20T03:03:09.023Z,58.16
2019-04-20T03:04:00.755Z,57.95
2019-04-20T03:05:06.387Z,58.67
2019-04-20T03:06:09.198Z,58.26
2019-04-20T03:07:09.327Z,58.47
2019-04-20T03:08:16.408Z,58.50
2019-04-20T03:09:17.669Z,58.29
2019-04-20T03:10:15.599Z,58.80
2019-04-20T03:11:27.266Z,58.91
2019-04-20T03:12:18.545Z,59.22
2019-04-20T03:13:15.647Z,59.42
2019-04-20T03:14:14.935Z,59.73
2019-04-20T03:15:09.717Z,59.73
2019-04-20T03:16:15.421Z,59.83
2019-04-20T03:17:15.563Z,59.93
2019-04-20T03:18:14.067Z,59.93
2019-04-20T03:19:14.563Z,59.52
2019-04-20T03:20:18.815Z,59.22
2019-04-20T03:21:22.550Z,59.83
2019-04-20T03:22:21.370Z,60.14
2019-04-20T03:24:19.306Z,60.03
2019-04-20T03:25:20.928Z,60.24
2019-04-20T03:26:19.137Z,60.27
2019-04-20T03:27:10.819Z,60.24
2019-04-20T03:28:14.048Z,60.58
2019-04-20T03:29:09.619Z,60.68
2019-04-20T03:30:40.320Z,60.47
2019-04-20T03:32:44.995Z,60.58
2019-04-20T03:33:31.791Z,60.58
2019-04-20T03:34:48.743Z,60.58
2019-04-20T03:35:20.597Z,60.89
2019-04-20T03:36:29.768Z,60.99
2019-04-20T03:37:20.355Z,60.99
2019-04-20T03:38:14.244Z,61.40
2019-04-20T03:39:13.871Z,61.09
2019-04-20T03:40:08.366Z,60.99
2019-04-20T03:41:05.129Z,61.40
2019-04-20T03:41:56.947Z,61.51
2019-04-20T03:42:53.277Z,61.51
2019-04-20T03:43:58.471Z,62.02
2019-04-20T03:45:00.555Z,62.02
2019-04-20T03:45:59.526Z,62.02
2019-04-20T03:46:59.692Z,62.02
2019-04-20T03:48:08.105Z,62.02
2019-04-20T03:49:11.847Z,61.91
2019-04-20T03:50:21.157Z,61.40
2019-04-20T03:51:14.673Z,62.12
2019-04-20T03:52:15.073Z,61.84
2019-04-20T03:53:12.848Z,61.51
2019-04-20T03:54:08.524Z,61.71
2019-04-20T03:55:13.899Z,61.84
2019-04-20T03:56:19.008Z,61.91
2019-04-20T03:58:14.288Z,62.56
2019-04-20T03:59:10.407Z,62.66
2019-04-20T04:00:12.340Z,62.46
2019-04-20T04:01:14.648Z,62.35
2019-04-20T04:03:26.118Z,62.46
2019-04-20T04:04:14.916Z,62.66
2019-04-20T04:05:08.537Z,62.77
2019-04-20T04:06:08.071Z,62.74
2019-04-20T04:06:56.603Z,62.87
2019-04-20T04:08:05.121Z,62.35
2019-04-20T04:09:07.265Z,62.97
2019-04-20T04:10:09.547Z,63.07
2019-04-20T04:11:12.467Z,62.97
2019-04-20T04:12:07.971Z,62.97
2019-04-20T04:12:54.728Z,63.39
2019-04-20T04:13:53.053Z,63.07
2019-04-20T04:14:53.675Z,63.39
2019-04-20T04:15:59.237Z,62.97
2019-04-20T04:16:57.519Z,63.28
2019-04-20T04:17:57.993Z,63.18
2019-04-20T04:19:07.506Z,63.07
2019-04-20T04:20:03.077Z,63.28
2019-04-20T04:21:00.095Z,63.67
2019-04-20T04:22:11.565Z,64.07
2019-04-20T04:23:10.450Z,63.15
2019-04-20T04:24:07.333Z,63.15
2019-04-20T04:25:07.557Z,63.76
2019-04-20T04:26:08.624Z,63.46
2019-04-20T04:27:08.262Z,63.56
2019-04-20T04:28:10.582Z,63.56
2019-04-20T04:29:19.193Z,63.56
2019-04-20T04:30:09.513Z,63.56
2019-04-20T04:31:11.947Z,63.67
2019-04-20T04:32:25.539Z,63.87
2019-04-20T04:33:45.709Z,63.67
2019-04-20T04:34:07.652Z,63.15
2019-04-20T04:35:10.614Z,63.74
2019-04-20T04:36:10.225Z,64.18
2019-04-20T04:37:13.138Z,62.92
2019-04-20T04:38:12.545Z,63.32
2019-04-20T04:39:15.330Z,63.32
2019-04-20T04:40:20.744Z,63.12
2019-04-20T04:41:19.662Z,63.02
2019-04-20T04:42:20.337Z,62.92
2019-04-20T04:43:16.040Z,63.02
2019-04-20T04:44:09.955Z,63.12
2019-04-20T04:45:01.674Z,63.43
2019-04-20T04:45:53.598Z,63.02
2019-04-20T04:46:59.375Z,63.02
2019-04-20T04:47:53.712Z,63.84
2019-04-20T04:48:54.665Z,63.12
2019-04-20T04:50:01.071Z,62.99
2019-04-20T04:50:59.816Z,63.12
2019-04-20T04:52:02.246Z,63.64
2019-04-20T04:53:02.840Z,63.09
2019-04-20T04:54:01.716Z,63.50
2019-04-20T04:55:04.938Z,62.85
2019-04-20T04:56:01.358Z,62.24
2019-04-20T04:56:54.574Z,62.11
2019-04-20T04:57:53.705Z,61.70
2019-04-20T04:58:53.708Z,61.16
2019-04-20T04:59:53.111Z,60.44
2019-04-20T05:00:57.013Z,60.31
2019-04-20T05:01:56.562Z,59.80
2019-04-20T05:02:57.743Z,59.15
2019-04-20T05:04:14.793Z,59.12
2019-04-20T05:05:17.654Z,57.79
2019-04-20T05:06:13.347Z,58.28
2019-04-20T05:07:07.925Z,58.17
2019-04-20T05:08:04.923Z,56.51
2019-04-20T05:08:58.427Z,56.61
2019-04-20T05:09:53.366Z,56.18
2019-04-20T05:10:52.371Z,56.66
2019-04-20T05:11:59.738Z,55.71
2019-04-20T05:12:54.692Z,54.67
2019-04-20T05:13:58.324Z,54.54
2019-04-20T05:15:03.607Z,54.33
2019-04-20T05:16:07.882Z,53.90
2019-04-20T05:17:09.923Z,53.57
2019-04-20T05:18:16.312Z,52.83
2019-04-20T05:19:26.200Z,52.32
2019-04-20T05:20:15.117Z,51.99
2019-04-20T05:21:18.805Z,51.25
2019-04-20T05:22:16.312Z,50.54
2019-04-20T05:23:08.805Z,51.03
2019-04-20T05:24:10.048Z,49.78
2019-04-20T05:25:14.167Z,50.37
2019-04-20T05:26:16.392Z,49.76
2019-04-20T05:27:15.906Z,49.55
2019-04-20T05:28:09.424Z,49.10
2019-04-20T05:29:01.378Z,48.16
2019-04-20T05:29:53.136Z,48.47
2019-04-20T05:30:57.775Z,48.14
2019-04-20T05:31:58.671Z,47.00
2019-04-20T05:33:02.633Z,45.76
2019-04-20T05:34:15.729Z,46.45
2019-04-20T05:35:14.722Z,45.51
2019-04-20T05:36:12.749Z,45.09
2019-04-20T05:37:23.766Z,44.99
2019-04-20T05:38:12.009Z,44.06
2019-04-20T05:39:23.655Z,43.93
2019-04-20T05:40:16.463Z,43.52
2019-04-20T05:41:13.950Z,43.51
2019-04-20T05:42:22.092Z,42.88
2019-04-20T05:44:11.301Z,42.15
2019-04-20T05:45:11.579Z,42.03
2019-04-20T05:46:15.988Z,41.00
2019-04-20T05:47:11.215Z,40.68
2019-04-20T05:48:09.005Z,40.78
2019-04-20T05:49:19.408Z,40.05
2019-04-20T05:50:06.214Z,40.36
2019-04-20T05:51:12.159Z,40.23
2019-04-20T05:52:24.098Z,39.61
2019-04-20T05:53:14.520Z,39.41
2019-04-20T05:54:17.911Z,39.79
2019-04-20T05:55:14.698Z,39.28
2019-04-20T05:56:10.565Z,38.25
2019-04-20T05:57:21.080Z,38.65
2019-04-20T05:58:18.094Z,38.25
2019-04-20T05:59:11.734Z,38.55
2019-04-20T06:00:14.211Z,37.65
2019-04-20T06:01:16.114Z,38.13
2019-04-20T06:02:17.049Z,37.51
2019-04-20T06:03:11.681Z,37.21
2019-04-20T06:04:09.532Z,36.99
2019-04-20T06:05:16.077Z,36.87
2019-04-20T06:06:19.031Z,36.16
2019-04-20T06:07:15.234Z,35.95
2019-04-20T06:08:15.606Z,36.45
2019-04-20T06:09:21.038Z,36.55
2019-04-20T06:10:11.470Z,36.23
2019-04-20T06:11:19.588Z,35.83
2019-04-20T06:12:31.993Z,35.31
2019-04-20T06:13:11.144Z,34.69
2019-04-20T06:14:05.384Z,34.78
2019-04-20T06:15:08.106Z,34.67
2019-04-20T06:16:08.892Z,33.56
2019-04-20T06:17:15.878Z,33.96
2019-04-20T06:18:06.321Z,34.16
2019-04-20T06:19:19.961Z,34.38
2019-04-20T06:20:12.694Z,34.88
2019-04-20T06:21:20.031Z,33.66
2019-04-20T06:22:24.704Z,33.86
2019-04-20T06:23:19.449Z,33.84
2019-04-20T06:24:18.315Z,32.93
2019-04-20T06:25:31.835Z,33.23
2019-04-20T06:26:26.425Z,32.91
2019-04-20T06:27:10.347Z,32.68
2019-04-20T06:28:06.943Z,31.58
2019-04-20T06:29:10.082Z,31.58
2019-04-20T06:30:11.207Z,32.06
2019-04-20T06:31:16.108Z,30.96
2019-04-20T06:32:21.466Z,32.46
2019-04-20T06:33:21.941Z,31.76
2019-04-20T06:34:28.006Z,31.75
2019-04-20T06:35:18.932Z,31.24
2019-04-20T06:36:23.721Z,30.62
2019-04-20T06:37:10.089Z,31.32
2019-04-20T06:38:29.626Z,30.91
2019-04-20T06:39:16.118Z,30.19
2019-04-20T06:40:31.441Z,30.18
2019-04-20T06:41:45.591Z,28.97
2019-04-20T06:42:15.196Z,28.78
2019-04-20T06:43:14.678Z,29.77
2019-04-20T06:44:21.585Z,30.46
2019-04-20T06:45:20.198Z,29.86
2019-04-20T06:46:15.261Z,29.97
2019-04-20T06:47:22.804Z,28.86
2019-04-20T06:48:26.701Z,29.14
2019-04-20T06:49:25.656Z,29.14
2019-04-20T06:50:14.961Z,28.76
2019-04-20T06:51:15.516Z,29.65
2019-04-20T06:52:20.290Z,29.55
2019-04-20T06:53:18.606Z,29.35
2019-04-20T06:54:05.427Z,29.03
2019-04-20T06:55:11.137Z,28.73
2019-04-20T06:56:15.698Z,28.22
2019-04-20T06:57:11.737Z,27.94
2019-04-20T06:58:31.919Z,28.22
2019-04-20T06:59:19.863Z,28.34
2019-04-20T07:00:15.543Z,29.03
2019-04-20T07:01:15.702Z,28.83
2019-04-20T07:02:32.468Z,27.94
2019-04-20T07:03:17.143Z,29.02
2019-04-20T07:04:36.547Z,28.52
2019-04-20T07:05:27.117Z,28.11
2019-04-20T07:06:32.130Z,28.29
2019-04-20T07:07:14.157Z,27.89
2019-04-20T07:08:31.458Z,27.99
2019-04-20T07:09:20.195Z,28.30
2019-04-20T07:11:18.710Z,28.32
2019-04-20T07:12:14.354Z,28.59
2019-04-20T07:13:07.718Z,28.19
2019-04-20T07:13:59.622Z,27.78
2019-04-20T07:15:06.510Z,27.87
2019-04-20T07:16:15.859Z,27.57
2019-04-20T07:17:20.436Z,27.16
2019-04-20T07:18:17.149Z,26.45
2019-04-20T07:19:15.355Z,26.43
2019-04-20T07:20:10.544Z,26.21
2019-04-20T07:21:15.323Z,25.82
2019-04-20T07:22:25.318Z,25.82
2019-04-20T07:23:21.350Z,26.03
2019-04-20T07:24:19.598Z,26.43
2019-04-20T07:25:13.973Z,26.12
2019-04-20T07:26:17.040Z,24.92
2019-04-20T07:27:13.551Z,25.50
2019-04-20T07:28:24.246Z,24.60
2019-04-20T07:29:18.413Z,24.88
2019-04-20T07:30:12.466Z,24.87
2019-04-20T07:31:06.837Z,25.28
2019-04-20T07:32:07.860Z,25.57
2019-04-20T07:33:17.867Z,25.39
2019-04-20T07:34:10.470Z,26.09
2019-04-20T07:35:14.218Z,25.68
2019-04-20T07:36:19.904Z,25.89
2019-04-20T07:37:41.941Z,25.89
2019-04-20T07:38:24.318Z,24.91
2019-04-20T07:39:13.274Z,25.32
2019-04-20T07:40:17.540Z,25.60
2019-04-20T07:41:23.390Z,24.58
2019-04-20T07:42:19.584Z,24.27
2019-04-20T07:43:07.956Z,23.65
2019-04-20T07:44:21.583Z,23.95
2019-04-20T07:45:18.234Z,23.64
2019-04-20T07:46:21.896Z,23.74
2019-04-20T07:47:13.735Z,24.55
2019-04-20T07:49:12.709Z,25.28
2019-04-20T07:50:09.054Z,25.46
2019-04-20T07:51:01.437Z,25.39
2019-04-20T07:51:52.609Z,24.90
2019-04-20T07:53:01.546Z,24.90
2019-04-20T07:54:19.345Z,25.78
2019-04-20T07:55:33.624Z,25.29
2019-04-20T07:56:13.064Z,25.49
2019-04-20T07:57:10.019Z,25.48
2019-04-20T07:58:05.086Z,24.57
2019-04-20T07:58:57.079Z,23.84
2019-04-20T08:00:16.276Z,23.52
2019-04-20T08:01:15.191Z,22.72
2019-04-20T08:02:19.190Z,22.61
2019-04-20T08:03:20.138Z,21.91
2019-04-20T08:04:13.558Z,22.41
2019-04-20T08:05:08.277Z,22.31
2019-04-20T08:06:02.288Z,21.80
2019-04-20T08:06:57.872Z,21.69
2019-04-20T08:08:10.489Z,21.39
2019-04-20T08:09:07.333Z,21.56
2019-04-20T08:09:58.467Z,21.36
2019-04-20T08:11:09.773Z,21.56
2019-04-20T08:12:15.377Z,21.16
2019-04-20T08:13:17.577Z,20.86
2019-04-20T08:14:19.323Z,20.75
2019-04-20T08:15:24.024Z,19.68
2019-04-20T08:16:21.251Z,21.06
2019-04-20T08:17:21.414Z,20.98
2019-04-20T08:18:21.043Z,20.89
2019-04-20T08:19:10.113Z,20.99
2019-04-20T08:20:09.238Z,21.59
2019-04-20T08:21:09.642Z,22.19
2019-04-20T08:22:10.780Z,21.49
2019-04-20T08:23:12.835Z,21.77
2019-04-20T08:24:08.591Z,20.99
2019-04-20T08:25:05.177Z,21.01
2019-04-20T08:26:03.943Z,21.31
2019-04-20T08:26:57.230Z,21.84
2019-04-20T08:27:51.267Z,23.73
2019-04-20T08:28:58.095Z,23.25
2019-04-20T08:30:01.977Z,23.63
2019-04-20T08:31:06.675Z,23.41
2019-04-20T08:32:16.117Z,23.41
2019-04-20T08:33:10.021Z,23.69
2019-04-20T08:35:15.394Z,22.30
2019-04-20T08:36:14.682Z,22.30
2019-04-20T08:37:09.865Z,22.09
2019-04-20T08:38:38.332Z,22.67
2019-04-20T08:39:26.883Z,22.08
2019-04-20T08:40:15.023Z,21.88
2019-04-20T08:41:07.266Z,22.38
2019-04-20T08:42:13.345Z,21.59
2019-04-20T08:43:20.579Z,21.67
2019-04-20T08:44:33.553Z,21.36
2019-04-20T08:45:18.086Z,20.99
2019-04-20T08:46:11.228Z,21.69
2019-04-20T08:47:20.543Z,21.28
2019-04-20T08:48:20.229Z,21.37
2019-04-20T08:49:21.340Z,21.76
2019-04-20T08:50:19.347Z,21.06
2019-04-20T08:51:12.179Z,21.26
2019-04-20T08:52:33.138Z,21.53
2019-04-20T08:54:11.215Z,20.96
2019-04-20T08:55:09.290Z,21.44
2019-04-20T08:56:07.870Z,19.85
2019-04-20T08:56:55.382Z,20.51
2019-04-20T08:57:51.440Z,20.03
2019-04-20T08:58:50.723Z,20.43
2019-04-20T08:59:51.396Z,19.86
2019-04-20T09:00:55.459Z,21.53
2019-04-20T09:01:51.127Z,21.04
2019-04-20T09:02:55.555Z,21.35
2019-04-20T09:03:58.951Z,21.77
2019-04-20T09:04:58.695Z,21.88
2019-04-20T09:06:02.385Z,22.49
2019-04-20T09:07:04.210Z,23.18
2019-04-20T09:08:02.405Z,22.17
2019-04-20T09:09:11.689Z,22.27
2019-04-20T09:10:16.406Z,22.58
2019-04-20T09:11:12.778Z,21.89
2019-04-20T09:12:13.575Z,22.16
2019-04-20T09:13:05.737Z,21.76
2019-04-20T09:13:55.906Z,21.35
2019-04-20T09:14:50.845Z,21.25
2019-04-20T09:15:49.793Z,19.86
2019-04-20T09:16:54.313Z,19.83
2019-04-20T09:17:57.126Z,19.62
2019-04-20T09:18:58.736Z,19.71
2019-04-20T09:19:58.617Z,19.63
2019-04-20T09:21:00.417Z,20.61
2019-04-20T09:21:57.518Z,19.71
2019-04-20T09:23:09.743Z,19.81
2019-04-20T09:24:16.800Z,19.42
2019-04-20T09:25:19.263Z,19.21
2019-04-20T09:26:12.747Z,19.43
2019-04-20T09:27:04.590Z,18.93
2019-04-20T09:28:03.522Z,19.41
2019-04-20T09:29:05.392Z,19.41
2019-04-20T09:30:05.869Z,19.13
2019-04-20T09:31:09.474Z,18.93
2019-04-20T09:32:11.329Z,19.60
2019-04-20T09:33:09.638Z,19.81
2019-04-20T09:34:10.481Z,19.82
2019-04-20T09:35:09.259Z,20.12
2019-04-20T09:36:02.343Z,19.96
2019-04-20T09:37:09.495Z,21.06
2019-04-20T09:38:06.131Z,21.36
2019-04-20T09:39:00.139Z,21.15
2019-04-20T09:40:10.602Z,21.14
2019-04-20T09:41:09.172Z,21.64
2019-04-20T09:42:00.376Z,21.06
2019-04-20T09:42:50.529Z,21.34
2019-04-20T09:43:50.720Z,21.34
2019-04-20T09:44:54.382Z,21.33
2019-04-20T09:45:56.952Z,21.44
2019-04-20T09:46:55.009Z,20.95
2019-04-20T09:47:54.495Z,20.94
2019-04-20T09:48:54.746Z,19.85
2019-04-20T09:50:00.807Z,19.82
2019-04-20T09:51:11.702Z,19.63
2019-04-20T09:52:08.276Z,19.24
2019-04-20T09:53:07.576Z,19.43
2019-04-20T09:54:02.914Z,19.60
2019-04-20T09:55:02.498Z,19.51
2019-04-20T09:56:06.229Z,19.32
2019-04-20T09:57:09.456Z,19.24
2019-04-20T09:58:02.677Z,19.06
2019-04-20T09:59:09.544Z,19.34
2019-04-20T10:00:08.692Z,19.43
2019-04-20T10:01:02.205Z,19.21
2019-04-20T10:01:59.700Z,19.99
2019-04-20T10:02:50.538Z,18.92
2019-04-20T10:03:50.310Z,18.82
2019-04-20T10:04:49.504Z,18.02
2019-04-20T10:05:49.626Z,18.62
2019-04-20T10:06:49.679Z,17.82
2019-04-20T10:07:56.019Z,17.43
2019-04-20T10:08:54.436Z,17.03
2019-04-20T10:09:51.928Z,17.99
2019-04-20T10:10:50.813Z,17.61
2019-04-20T10:11:50.492Z,17.93
2019-04-20T10:12:50.095Z,18.04
2019-04-20T10:13:50.102Z,18.03
2019-04-20T10:14:49.273Z,18.04
2019-04-20T10:15:50.018Z,18.23
2019-04-20T10:16:49.750Z,18.04
2019-04-20T10:17:49.896Z,17.93
2019-04-20T10:18:53.515Z,17.44
2019-04-20T10:19:49.227Z,17.03
2019-04-20T10:20:49.583Z,17.13
2019-04-20T10:21:49.185Z,16.44
2019-04-20T10:22:49.169Z,17.71
2019-04-20T10:23:50.297Z,16.56
2019-04-20T10:24:50.902Z,17.25
2019-04-20T10:25:49.181Z,17.35
2019-04-20T10:26:50.370Z,17.35
2019-04-20T10:27:49.543Z,17.25
2019-04-20T10:28:49.777Z,16.96
2019-04-20T10:29:49.345Z,16.94
2019-04-20T10:30:50.399Z,16.66
2019-04-20T10:31:55.017Z,16.95
2019-04-20T10:32:53.231Z,17.34
2019-04-20T10:33:49.344Z,16.66
2019-04-20T10:34:50.554Z,16.94
2019-04-20T10:35:49.642Z,15.96
2019-04-20T10:36:49.045Z,16.24
2019-04-20T10:37:49.410Z,16.14
2019-04-20T10:38:49.038Z,16.41
2019-04-20T10:39:49.024Z,16.51
2019-04-20T10:40:57.256Z,16.31
2019-04-20T10:41:55.378Z,16.22
2019-04-20T10:42:50.200Z,15.33
2019-04-20T10:43:49.066Z,16.51
2019-04-20T10:44:51.625Z,16.22
2019-04-20T10:45:49.031Z,16.11
2019-04-20T10:46:49.179Z,16.22
2019-04-20T10:47:48.974Z,16.04
2019-04-20T10:48:51.682Z,16.24
2019-04-20T10:49:49.348Z,16.34
2019-04-20T10:50:49.282Z,15.77
2019-04-20T10:51:49.554Z,15.75
2019-04-20T10:52:49.961Z,16.33
2019-04-20T10:53:48.918Z,15.75
2019-04-20T10:54:50.279Z,16.25
2019-04-20T10:55:49.525Z,16.16
2019-04-20T10:56:49.781Z,16.66
2019-04-20T10:57:49.269Z,16.27
2019-04-20T10:58:49.639Z,16.94
2019-04-20T10:59:49.844Z,16.74
2019-04-20T11:00:50.123Z,15.67
2019-04-20T11:01:49.722Z,16.55
2019-04-20T11:02:50.485Z,16.36
2019-04-20T11:03:50.280Z,16.05
2019-04-20T11:04:48.839Z,14.77
2019-04-20T11:05:49.048Z,14.95
2019-04-20T11:06:48.800Z,14.65
2019-04-20T11:07:48.795Z,14.95
2019-04-20T11:08:48.791Z,15.22
2019-04-20T11:10:00.663Z,14.92
2019-04-20T11:11:00.234Z,15.12
2019-04-20T11:11:50.282Z,14.64
2019-04-20T11:12:48.758Z,15.52
2019-04-20T11:13:48.738Z,15.92
2019-04-20T11:14:50.135Z,16.34
2019-04-20T11:15:48.728Z,16.17
2019-04-20T11:16:48.719Z,16.58
2019-04-20T11:17:49.119Z,16.98
2019-04-20T11:18:49.392Z,17.19
2019-04-20T11:19:49.475Z,16.88
2019-04-20T11:20:49.122Z,16.28
2019-04-20T11:21:48.689Z,17.06
2019-04-20T11:22:48.679Z,16.28
2019-04-20T11:23:49.921Z,15.98
2019-04-20T11:24:48.652Z,16.38
2019-04-20T11:25:48.663Z,16.19
2019-04-20T11:26:49.620Z,16.30
2019-04-20T11:27:48.622Z,16.86
2019-04-20T11:28:48.620Z,16.37
2019-04-20T11:29:49.754Z,15.50
2019-04-20T11:30:49.865Z,15.78
2019-04-20T11:31:51.556Z,16.27
2019-04-20T11:32:49.577Z,16.27
2019-04-20T11:33:49.939Z,15.48
2019-04-20T11:34:49.172Z,14.69
2019-04-20T11:35:49.895Z,14.61
2019-04-20T11:36:48.889Z,15.39
2019-04-20T11:37:49.142Z,15.59
2019-04-20T11:38:49.081Z,15.39
2019-04-20T11:39:48.521Z,15.17
2019-04-20T11:41:02.521Z,14.59
2019-04-20T11:41:49.802Z,15.08
2019-04-20T11:42:49.889Z,15.75
2019-04-20T11:43:49.447Z,14.78
2019-04-20T11:44:48.856Z,14.58
2019-04-20T11:45:48.886Z,14.76
2019-04-20T11:46:48.468Z,14.17
2019-04-20T11:47:49.538Z,14.45
2019-04-20T11:48:49.580Z,14.75
2019-04-20T11:49:49.328Z,14.37
2019-04-20T11:50:49.534Z,14.37
2019-04-20T11:51:49.715Z,14.76
2019-04-20T11:52:49.956Z,15.25
2019-04-20T11:53:48.408Z,14.45
2019-04-20T11:54:48.621Z,14.25
2019-04-20T11:55:48.785Z,14.16
2019-04-20T11:56:49.070Z,13.96
2019-04-20T11:57:49.395Z,13.47
2019-04-20T11:58:49.114Z,13.86
2019-04-20T11:59:48.517Z,13.85
2019-04-20T12:00:57.651Z,13.26
2019-04-20T12:01:56.464Z,13.56
2019-04-20T12:02:52.619Z,13.75
2019-04-20T12:03:58.415Z,14.04
2019-04-20T12:05:05.837Z,13.35
2019-04-20T12:05:53.735Z,13.45
2019-04-20T12:06:50.658Z,14.12
2019-04-20T12:07:49.082Z,13.83
2019-04-20T12:08:49.191Z,13.93
2019-04-20T12:09:49.377Z,13.54
2019-04-20T12:10:53.975Z,14.02
2019-04-20T12:12:04.230Z,14.01
2019-04-20T12:12:52.724Z,14.41
2019-04-20T12:13:49.246Z,14.23
2019-04-20T12:14:48.540Z,13.65
2019-04-20T12:15:49.570Z,13.75
2019-04-20T12:16:48.243Z,13.84
2019-04-20T12:17:49.413Z,13.65
2019-04-20T12:18:48.351Z,14.73
2019-04-20T12:19:48.210Z,14.34
2019-04-20T12:20:48.197Z,14.06
2019-04-20T12:21:49.560Z,14.56
2019-04-20T12:22:48.434Z,13.79
2019-04-20T12:23:48.668Z,14.37
2019-04-20T12:24:48.168Z,14.27
2019-04-20T12:25:48.185Z,14.18
2019-04-20T12:26:48.875Z,14.49
2019-04-20T12:27:52.583Z,14.40
2019-04-20T12:28:49.656Z,14.79
2019-04-20T12:29:48.132Z,15.09
2019-04-20T12:30:48.133Z,14.39
2019-04-20T12:31:51.113Z,14.39
2019-04-20T12:32:55.496Z,14.58
2019-04-20T12:33:50.433Z,14.77
2019-04-20T12:34:49.496Z,14.28
2019-04-20T12:35:48.199Z,14.57
2019-04-20T12:36:49.150Z,14.28
2019-04-20T12:37:49.198Z,14.36
2019-04-20T12:38:48.657Z,13.78
2019-04-20T12:39:49.196Z,13.21
2019-04-20T12:40:48.343Z,13.21
2019-04-20T12:41:53.313Z,12.91
2019-04-20T12:42:49.012Z,14.07
2019-04-20T12:43:48.004Z,13.38
2019-04-20T12:44:48.079Z,13.28
2019-04-20T12:45:47.993Z,13.46
2019-04-20T12:46:48.031Z,13.18
2019-04-20T12:47:50.275Z,13.37
2019-04-20T12:48:49.307Z,13.57
2019-04-20T12:49:47.962Z,13.79
2019-04-20T12:50:48.003Z,13.99
2019-04-20T12:51:52.613Z,13.63
2019-04-20T12:52:50.275Z,14.22
2019-04-20T12:53:48.741Z,14.11
2019-04-20T12:54:48.024Z,14.09
2019-04-20T12:55:48.472Z,14.00
2019-04-20T12:56:48.772Z,14.39
2019-04-20T12:57:47.893Z,14.59
2019-04-20T12:58:47.893Z,14.22
2019-04-20T12:59:49.570Z,14.02
2019-04-20T13:00:49.815Z,13.73
2019-04-20T13:01:49.151Z,14.03
2019-04-20T13:02:47.859Z,14.70
2019-04-20T13:03:47.843Z,14.32
2019-04-20T13:04:49.069Z,14.13
2019-04-20T13:05:47.949Z,14.71
2019-04-20T13:06:49.290Z,14.22